createdAt,value
2022-08-05T00:04:59.225Z,72.53
2022-08-05T00:10:02.029Z,72.36
2022-08-05T00:15:53.915Z,72.50
2022-08-05T00:20:29.950Z,72.67
2022-08-05T00:25:45.393Z,72.43
2022-08-05T00:30:52.064Z,72.71
2022-08-05T00:36:16.062Z,73.14
2022-08-05T00:41:52.232Z,74.47
2022-08-05T00:46:54.260Z,74.18
2022-08-05T00:52:08.243Z,74.02
2022-08-05T00:57:11.151Z,73.48
2022-08-05T01:02:13.957Z,73.55
2022-08-05T01:07:20.838Z,73.39
2022-08-05T01:12:29.774Z,73.68
2022-08-05T01:17:40.222Z,73.49
2022-08-05T01:22:59.701Z,73.58
2022-08-05T01:28:28.988Z,74.24
2022-08-05T01:33:36.775Z,74.26
2022-08-05T01:38:41.028Z,74.67
2022-08-05T01:43:46.826Z,74.77
2022-08-05T01:48:54.412Z,74.33
2022-08-05T01:53:58.903Z,74.26
2022-08-05T01:59:05.815Z,74.06
2022-08-05T02:04:11.890Z,74.11
2022-08-05T02:09:16.483Z,74.19
2022-08-05T02:14:31.960Z,74.59
2022-08-05T02:19:41.358Z,74.91
2022-08-05T02:24:53.694Z,75.40
2022-08-05T02:30:02.021Z,75.70
2022-08-05T02:35:14.162Z,75.70
2022-08-05T02:40:18.359Z,75.60
2022-08-05T02:45:24.479Z,76.00
2022-08-05T02:50:29.562Z,75.65
2022-08-05T02:55:59.813Z,76.11
2022-08-05T03:01:00.509Z,77.63
2022-08-05T03:06:53.943Z,78.24
2022-08-05T03:11:54.671Z,78.75
2022-08-05T03:16:53.349Z,78.76
2022-08-05T03:21:56.429Z,79.59
2022-08-05T03:27:01.563Z,79.91
2022-08-05T03:32:07.681Z,80.65
2022-08-05T03:37:11.803Z,80.65
2022-08-05T03:42:17.196Z,80.78
2022-08-05T03:47:21.445Z,81.11
2022-08-05T03:52:38.383Z,80.70
2022-08-05T03:57:54.001Z,80.54
2022-08-05T04:03:01.267Z,80.20
2022-08-05T04:08:30.040Z,79.97
2022-08-05T04:13:51.211Z,80.32
2022-08-05T04:18:54.765Z,80.21
2022-08-05T04:24:06.290Z,80.48
2022-08-05T04:29:09.883Z,80.62
2022-08-05T04:34:31.729Z,80.31
2022-08-05T04:39:36.100Z,80.06
2022-08-05T04:44:39.188Z,80.25
2022-08-05T04:50:02.598Z,80.15
2022-08-05T04:55:14.442Z,80.20
2022-08-05T05:00:18.545Z,79.66
2022-08-05T05:05:29.101Z,79.16
2022-08-05T05:10:33.676Z,78.97
2022-08-05T05:15:57.320Z,78.53
2022-08-05T05:21:01.275Z,78.82
2022-08-05T05:26:04.226Z,78.73
2022-08-05T05:31:08.926Z,79.12
2022-08-05T05:36:13.495Z,80.20
2022-08-05T05:41:17.620Z,80.48
2022-08-05T05:46:21.770Z,80.45
2022-08-05T05:51:27.836Z,79.75
2022-08-05T05:56:34.755Z,78.47
2022-08-05T06:01:40.108Z,78.18
2022-08-05T06:06:47.477Z,78.56
2022-08-05T06:12:01.442Z,78.92
2022-08-05T06:17:22.372Z,78.94
2022-08-05T06:22:30.646Z,78.75
2022-08-05T06:28:09.330Z,78.79
2022-08-05T06:32:59.898Z,79.51
2022-08-05T06:38:11.279Z,79.48
2022-08-05T06:43:57.903Z,79.14
2022-08-05T06:48:55.852Z,79.37
2022-08-05T06:54:03.989Z,79.38
2022-08-05T06:59:09.668Z,79.04
2022-08-05T07:04:14.768Z,79.06
2022-08-05T07:09:24.907Z,79.14
2022-08-05T07:14:45.495Z,79.02
2022-08-05T07:20:31.435Z,79.02
2022-08-05T07:25:54.504Z,78.84
2022-08-05T07:30:38.883Z,79.28
2022-08-05T07:36:02.191Z,79.27
2022-08-05T07:41:35.216Z,79.88
2022-08-05T07:46:33.829Z,81.21
2022-08-05T07:51:41.049Z,81.26
2022-08-05T07:57:13.282Z,81.59
2022-08-05T08:07:39.465Z,81.54
2022-08-05T08:12:59.035Z,81.48
2022-08-05T08:18:02.927Z,81.59
2022-08-05T08:23:11.599Z,81.69
2022-08-05T08:28:36.293Z,81.10
2022-08-05T08:33:41.176Z,80.88
2022-08-05T08:38:44.041Z,81.50
2022-08-05T08:45:22.491Z,81.68
2022-08-05T08:50:22.251Z,81.19
2022-08-05T08:54:48.172Z,80.71
2022-08-05T08:59:52.403Z,80.77
2022-08-05T09:05:17.267Z,80.37
2022-08-05T09:10:21.819Z,79.81
2022-08-05T09:15:32.359Z,80.04
2022-08-05T09:20:41.782Z,79.41
2022-08-05T09:26:00.326Z,78.51
2022-08-05T09:31:22.199Z,78.05
2022-08-05T09:36:56.439Z,77.97
2022-08-05T09:42:03.986Z,77.50
2022-08-05T09:47:12.652Z,77.35
2022-08-05T09:52:20.136Z,77.12
2022-08-05T09:57:39.675Z,76.91
2022-08-05T10:02:49.641Z,77.07
2022-08-05T10:08:35.973Z,77.14
2022-08-05T10:13:31.562Z,78.37
2022-08-05T10:18:48.611Z,79.45
2022-08-05T10:24:00.549Z,80.04
2022-08-05T10:29:04.017Z,80.44
2022-08-05T10:34:09.424Z,80.26
2022-08-05T10:39:24.257Z,81.27
2022-08-05T10:44:30.449Z,81.01
2022-08-05T10:49:48.755Z,81.60
2022-08-05T10:55:05.752Z,81.61
2022-08-05T11:00:17.935Z,81.15
2022-08-05T11:05:26.280Z,81.56
2022-08-05T11:10:33.151Z,81.84
2022-08-05T11:16:00.576Z,81.78
2022-08-05T11:21:06.432Z,82.02
2022-08-05T11:26:29.086Z,81.97
2022-08-05T11:31:57.537Z,81.55
2022-08-05T11:37:01.310Z,82.00
2022-08-05T11:42:11.190Z,81.88
2022-08-05T11:47:48.172Z,82.03
2022-08-05T11:52:53.176Z,81.39
2022-08-05T11:58:10.936Z,79.53
2022-08-05T12:03:23.825Z,79.56
2022-08-05T12:08:32.972Z,79.03
2022-08-05T12:13:48.745Z,78.31
2022-08-05T12:18:53.550Z,78.55
2022-08-05T12:24:04.936Z,77.62
2022-08-05T12:29:16.230Z,77.01
2022-08-05T12:34:23.776Z,76.52
2022-08-05T12:39:37.278Z,76.93
2022-08-05T12:44:43.117Z,76.24
2022-08-05T12:50:04.139Z,76.20
2022-08-05T12:55:22.541Z,76.05
2022-08-05T13:02:01.381Z,75.58
2022-08-05T13:05:50.602Z,76.30
2022-08-05T13:11:01.009Z,76.30
2022-08-05T13:16:04.348Z,75.88
2022-08-05T13:21:09.882Z,76.12
2022-08-05T13:26:16.747Z,75.58
2022-08-05T13:31:19.937Z,76.70
2022-08-05T13:36:43.629Z,77.34
2022-08-05T13:41:47.828Z,78.32
2022-08-05T13:47:04.860Z,79.29
2022-08-05T13:52:12.827Z,77.74
2022-08-05T13:57:17.735Z,78.50
2022-08-05T14:02:26.586Z,78.94
2022-08-05T14:08:00.419Z,78.98
2022-08-05T14:12:58.717Z,79.14
2022-08-05T14:18:03.846Z,78.92
2022-08-05T14:23:06.915Z,79.21
2022-08-05T14:28:15.998Z,79.26
2022-08-05T14:33:32.530Z,79.34
2022-08-05T14:38:53.613Z,78.65
2022-08-05T14:44:09.509Z,78.58
2022-08-05T14:49:17.530Z,78.28
2022-08-05T14:54:28.818Z,78.10
2022-08-05T14:59:35.711Z,78.04
2022-08-05T15:04:38.745Z,78.03
2022-08-05T15:09:51.430Z,78.58
2022-08-05T15:14:58.766Z,78.19
2022-08-05T15:20:01.604Z,77.75
2022-08-05T15:25:13.570Z,78.13
2022-08-05T15:30:18.492Z,77.85
2022-08-05T15:35:21.838Z,77.39
2022-08-05T15:41:01.277Z,77.17
2022-08-05T15:46:00.565Z,76.17
2022-08-05T15:51:05.906Z,76.17
2022-08-05T15:56:14.111Z,75.51
2022-08-05T16:01:19.165Z,75.54
2022-08-05T16:06:23.468Z,75.89
2022-08-05T16:11:42.572Z,76.34
2022-08-05T16:16:48.351Z,76.08
2022-08-05T16:22:00.241Z,76.40
2022-08-05T16:27:07.382Z,76.63
2022-08-05T16:32:11.715Z,76.70
2022-08-05T16:38:01.704Z,76.35
2022-08-05T16:42:37.399Z,75.77
2022-08-05T16:47:53.343Z,76.00
2022-08-05T16:52:57.092Z,75.13
2022-08-05T16:58:01.621Z,74.68
2022-08-05T17:03:09.269Z,74.16
2022-08-05T17:08:36.100Z,74.40
2022-08-05T17:13:46.878Z,74.18
2022-08-05T17:18:51.143Z,74.17
2022-08-05T17:24:04.754Z,74.24
2022-08-05T17:29:11.175Z,74.58
2022-08-05T17:34:17.768Z,74.17
2022-08-05T17:39:23.771Z,73.77
2022-08-05T17:44:32.587Z,73.27
2022-08-05T17:49:52.055Z,73.16
2022-08-05T17:54:59.697Z,72.87
2022-08-05T18:00:04.718Z,72.42
2022-08-05T18:05:10.644Z,72.54
2022-08-05T18:10:20.443Z,72.69
2022-08-05T18:15:27.089Z,72.32
2022-08-05T18:20:32.598Z,72.28
2022-08-05T18:25:35.877Z,72.58
2022-08-05T18:30:40.255Z,72.75
2022-08-05T18:36:00.696Z,72.94
2022-08-05T18:41:57.703Z,73.11
2022-08-05T18:46:30.356Z,73.03
2022-08-05T18:52:05.107Z,73.20
2022-08-05T18:57:15.226Z,73.37
2022-08-05T19:02:38.125Z,73.87
2022-08-05T19:07:45.880Z,73.63
2022-08-05T19:12:49.945Z,74.04
2022-08-05T19:18:08.355Z,74.26
2022-08-05T19:24:03.795Z,74.09
2022-08-05T19:28:41.493Z,74.22
2022-08-05T19:33:48.313Z,74.43
2022-08-05T19:39:01.689Z,74.31
2022-08-05T19:44:13.818Z,74.40
2022-08-05T19:49:17.806Z,74.30
2022-08-05T20:00:44.539Z,74.79
2022-08-05T20:05:51.706Z,74.97
2022-08-05T20:10:55.148Z,75.17
2022-08-05T20:15:59.634Z,75.53
2022-08-05T20:21:04.489Z,75.95
2022-08-05T20:26:07.915Z,76.31
2022-08-05T20:31:21.665Z,76.20
2022-08-05T20:36:26.073Z,76.34
2022-08-05T20:41:43.748Z,76.41
2022-08-05T20:46:48.891Z,76.63
2022-08-05T20:51:53.646Z,76.83
2022-08-05T20:56:57.246Z,76.93
2022-08-05T21:02:01.700Z,76.82
2022-08-05T21:07:08.922Z,76.72
2022-08-05T21:12:12.115Z,76.70
2022-08-05T21:17:21.496Z,76.53
2022-08-05T21:22:25.388Z,76.38
2022-08-05T21:27:28.335Z,76.27
2022-08-05T21:32:43.178Z,76.29
2022-08-05T21:37:47.413Z,76.15
2022-08-05T21:42:56.265Z,76.06
2022-08-05T21:48:06.274Z,75.88
2022-08-05T21:53:16.656Z,75.70
2022-08-05T21:58:24.824Z,75.64
2022-08-05T22:03:52.752Z,75.82
2022-08-05T22:08:56.858Z,76.11
2022-08-05T22:14:19.802Z,76.09
2022-08-05T22:20:00.227Z,76.31
2022-08-05T22:25:04.596Z,76.32
2022-08-05T22:30:13.150Z,76.26
2022-08-05T22:35:17.662Z,76.18
2022-08-05T22:40:22.036Z,76.16
2022-08-05T22:45:26.342Z,75.88
2022-08-05T22:50:30.549Z,75.66
2022-08-05T22:55:37.164Z,75.33
2022-08-05T23:00:57.065Z,75.22
2022-08-05T23:06:01.562Z,74.87
2022-08-05T23:11:04.931Z,74.74
2022-08-05T23:16:11.657Z,74.29
2022-08-05T23:21:16.517Z,74.16
2022-08-05T23:26:19.951Z,74.06
2022-08-05T23:31:24.489Z,73.92
2022-08-05T23:36:28.648Z,74.13
2022-08-05T23:41:48.440Z,74.26
2022-08-05T23:46:51.725Z,74.04
2022-08-05T23:52:13.566Z,73.95
2022-08-05T23:57:19.327Z,73.84
